sim
Sign-in with your pilot id or email,
or register
Callsign
Passwort

Schedule Details

Flight Number: OEO7868
Departure: Hamburg Airport (EDDH) at 06:30
Arrival: Fuerteventura Airport (GCFV) at 11:55

Weather Information
Getting current METAR information for EDDH 212150Z 07008KT CAVOK 10/02 Q1019 NOSIG
Getting current METAR information for GCFV 212130Z 34010KT 300V360 9999 SCT029 19/13 Q1015

Schedule Frequency

Route Map